createdAt,value
2023-01-13T00:00:22.945Z,100033.38
2023-01-13T00:05:25.817Z,100042.69
2023-01-13T00:10:27.372Z,100026.50
2023-01-13T00:15:28.951Z,100028.13
2023-01-13T00:20:30.500Z,100008.56
2023-01-13T00:25:32.794Z,100003.44
2023-01-13T00:30:34.358Z,99995.88
2023-01-13T00:35:35.945Z,99983.25
2023-01-13T00:40:37.978Z,99980.81
2023-01-13T00:45:39.624Z,99981.09
2023-01-13T00:50:41.181Z,99979.59
2023-01-13T00:55:42.779Z,99964.38
2023-01-13T01:00:45.970Z,99951.59
2023-01-13T01:05:47.622Z,99955.97
2023-01-13T01:10:49.262Z,99938.28
2023-01-13T01:15:50.891Z,99960.38
2023-01-13T01:20:52.476Z,99975.81
2023-01-13T01:25:54.121Z,99959.94
2023-01-13T01:30:55.718Z,99982.31
2023-01-13T01:35:57.293Z,99967.25
2023-01-13T01:40:59.858Z,99958.97
2023-01-13T01:46:01.583Z,99972.34
2023-01-13T01:51:03.320Z,99957.00
2023-01-13T01:56:05.450Z,99941.72
2023-01-13T02:01:07.738Z,99944.44
2023-01-13T02:06:09.708Z,99944.56
2023-01-13T02:11:47.158Z,99944.69
2023-01-13T02:16:58.216Z,99931.38
2023-01-13T02:22:33.454Z,99936.91
2023-01-13T02:27:59.456Z,99938.22
2023-01-13T02:33:27.158Z,99914.69
2023-01-13T02:38:37.997Z,99910.31
2023-01-13T02:43:59.258Z,99912.59
2023-01-13T02:49:07.507Z,99894.41
2023-01-13T02:54:14.285Z,99884.75
2023-01-13T02:59:16.045Z,99893.78
2023-01-13T03:04:45.455Z,99882.38
2023-01-13T03:09:58.199Z,99882.19
2023-01-13T03:15:09.400Z,99870.06
2023-01-13T03:20:19.616Z,99846.88
2023-01-13T03:25:36.632Z,99855.13
2023-01-13T03:30:48.614Z,99852.34
2023-01-13T03:35:54.996Z,99851.44
2023-01-13T03:41:26.032Z,99842.84
2023-01-13T03:46:38.759Z,99829.25
2023-01-13T03:51:44.100Z,99828.31
2023-01-13T03:56:49.935Z,99812.03
2023-01-13T04:02:03.710Z,99816.19
2023-01-13T04:07:05.305Z,99810.25
2023-01-13T04:12:19.184Z,99809.44
2023-01-13T04:17:21.527Z,99813.56
2023-01-13T04:22:22.933Z,99789.72
2023-01-13T04:27:24.384Z,99800.59
2023-01-13T04:32:26.019Z,99816.84
2023-01-13T04:37:27.616Z,99810.94
2023-01-13T04:42:29.157Z,99799.09
2023-01-13T04:47:30.557Z,99811.91
2023-01-13T04:52:32.040Z,99795.72
2023-01-13T04:57:35.029Z,99782.13
2023-01-13T05:02:36.561Z,99791.50
2023-01-13T05:07:38.053Z,99785.59
2023-01-13T05:12:58.673Z,99775.38
2023-01-13T05:18:01.106Z,99795.84
2023-01-13T05:23:20.997Z,99772.97
2023-01-13T05:28:22.487Z,99788.31
2023-01-13T05:33:23.928Z,99791.06
2023-01-13T05:38:25.336Z,99803.81
2023-01-13T05:43:27.656Z,99795.41
2023-01-13T05:48:32.332Z,99803.06
2023-01-13T05:53:34.473Z,99784.38
2023-01-13T05:58:35.931Z,99788.72
2023-01-13T06:03:38.267Z,99787.03
2023-01-13T06:08:40.169Z,99786.22
2023-01-13T06:13:41.709Z,99781.13
2023-01-13T06:18:43.141Z,99787.03
2023-01-13T06:23:44.525Z,99793.81
2023-01-13T06:28:46.184Z,99780.28
2023-01-13T06:33:58.303Z,99777.81
2023-01-13T06:39:02.348Z,99810.22
2023-01-13T06:44:03.792Z,99791.72
2023-01-13T06:49:07.003Z,99786.81
2023-01-13T06:54:08.770Z,99802.22
2023-01-13T06:59:10.223Z,99799.91
2023-01-13T07:04:11.667Z,99812.16
2023-01-13T07:09:13.115Z,99809.78
2023-01-13T07:14:33.322Z,99813.03
2023-01-13T07:19:34.767Z,99825.59
2023-01-13T07:24:36.182Z,99835.59
2023-01-13T07:29:37.638Z,99857.75
2023-01-13T07:34:39.075Z,99873.72
2023-01-13T07:39:40.533Z,99888.84
2023-01-13T07:44:42.026Z,99907.25
2023-01-13T07:49:43.511Z,99941.66
2023-01-13T07:54:44.940Z,99967.69
2023-01-13T07:59:46.372Z,99975.81
2023-01-13T08:04:47.854Z,100001.28
2023-01-13T08:09:49.384Z,99999.13
2023-01-13T08:14:51.783Z,100010.53
2023-01-13T08:19:53.245Z,100035.25
2023-01-13T08:24:54.676Z,100040.38
2023-01-13T08:29:56.178Z,100052.97
2023-01-13T08:34:57.607Z,100064.09
2023-01-13T08:39:59.051Z,100060.31
2023-01-13T08:45:00.636Z,100073.28
2023-01-13T08:50:02.916Z,100072.34
2023-01-13T08:55:04.732Z,100077.09
2023-01-13T09:00:08.288Z,100076.16
2023-01-13T09:05:11.261Z,100088.69
2023-01-13T09:10:12.779Z,100073.13
2023-01-13T09:15:14.380Z,100079.81
2023-01-13T09:20:15.953Z,100097.38
2023-01-13T09:25:18.029Z,100103.13
2023-01-13T09:30:19.594Z,100109.50
2023-01-13T09:35:21.046Z,100095.00
2023-01-13T09:40:22.847Z,100106.91
2023-01-13T09:45:50.375Z,100115.19
2023-01-13T09:51:18.632Z,100116.22
2023-01-13T09:56:20.223Z,100116.94
2023-01-13T10:01:59.435Z,100117.16
2023-01-13T10:07:05.813Z,100118.06
2023-01-13T10:12:33.285Z,100114.28
2023-01-13T10:17:48.253Z,100129.28
2023-01-13T10:23:48.152Z,100137.09
2023-01-13T10:28:56.268Z,100145.53
2023-01-13T10:34:00.693Z,100135.03
2023-01-13T10:39:15.114Z,100142.03
2023-01-13T10:44:18.736Z,100139.28
2023-01-13T10:49:33.116Z,100144.13
2023-01-13T10:54:35.972Z,100143.94
2023-01-13T10:59:37.890Z,100141.34
2023-01-13T11:04:43.451Z,100145.53
2023-01-13T11:09:45.169Z,100150.63
2023-01-13T11:14:48.444Z,100172.16
2023-01-13T11:20:24.294Z,100177.88
2023-01-13T11:25:41.812Z,100171.25
2023-01-13T11:31:09.501Z,100172.22
2023-01-13T11:36:16.030Z,100160.19
2023-01-13T11:41:45.348Z,100154.34
2023-01-13T11:46:52.296Z,100161.31
2023-01-13T11:52:18.900Z,100176.09
2023-01-13T11:57:58.624Z,100229.13
2023-01-13T12:03:18.786Z,100226.16
2023-01-13T12:08:59.402Z,100212.75
2023-01-13T12:14:27.404Z,100207.75
2023-01-13T12:19:32.436Z,100209.22
2023-01-13T12:24:57.020Z,100201.78
2023-01-13T12:30:02.314Z,100202.41
2023-01-13T12:35:34.283Z,100201.47
2023-01-13T12:40:52.317Z,100200.59
2023-01-13T12:45:54.782Z,100180.31
2023-01-13T12:51:00.751Z,100185.63
2023-01-13T12:56:30.699Z,100184.44
2023-01-13T13:01:36.161Z,100179.88
2023-01-13T13:06:40.325Z,100196.09
2023-01-13T13:12:03.301Z,100200.50
2023-01-13T13:17:25.618Z,100188.91
2023-01-13T13:22:27.052Z,100208.44
2023-01-13T13:27:37.868Z,100224.38
2023-01-13T13:33:00.820Z,100213.19
2023-01-13T13:38:38.920Z,100211.56
2023-01-13T13:44:01.634Z,100232.22
2023-01-13T13:49:03.116Z,100244.66
2023-01-13T13:54:04.997Z,100245.56
2023-01-13T13:59:10.996Z,100258.50
2023-01-13T14:04:20.527Z,100269.97
2023-01-13T14:09:24.253Z,100263.53
2023-01-13T14:14:26.310Z,100279.97
2023-01-13T14:19:32.940Z,100276.72
2023-01-13T14:24:46.515Z,100290.66
2023-01-13T14:29:49.015Z,100279.34
2023-01-13T14:34:52.146Z,100290.78
2023-01-13T14:39:53.830Z,100290.34
2023-01-13T14:44:56.402Z,100284.59
2023-01-13T14:50:28.383Z,100293.25
2023-01-13T14:55:36.428Z,100298.38
2023-01-13T15:00:38.045Z,100306.91
2023-01-13T15:05:42.745Z,100329.19
2023-01-13T15:10:54.965Z,100331.94
2023-01-13T15:15:59.706Z,100373.28
2023-01-13T15:21:01.364Z,100361.34
2023-01-13T15:26:03.592Z,100382.84
2023-01-13T15:31:05.277Z,100397.50
2023-01-13T15:36:34.340Z,100388.22
2023-01-13T15:41:54.396Z,100393.75
2023-01-13T15:46:57.022Z,100407.06
2023-01-13T15:51:59.633Z,100403.25
2023-01-13T15:57:01.141Z,100411.94
2023-01-13T16:02:02.552Z,100409.72
2023-01-13T16:07:12.947Z,100423.47
2023-01-13T16:12:14.565Z,100429.53
2023-01-13T16:17:21.571Z,100447.31
2023-01-13T16:22:23.096Z,100458.25
2023-01-13T16:27:25.715Z,100468.25
2023-01-13T16:32:27.148Z,100491.47
2023-01-13T16:37:29.676Z,100478.31
2023-01-13T16:42:31.167Z,100483.94
2023-01-13T16:47:32.630Z,100494.59
2023-01-13T16:52:34.017Z,100505.25
2023-01-13T16:57:35.443Z,100495.69
2023-01-13T17:02:36.919Z,100490.53
2023-01-13T17:07:38.599Z,100510.72
2023-01-13T17:12:40.177Z,100512.38
2023-01-13T17:17:43.786Z,100522.63
2023-01-13T17:22:47.495Z,100513.53
2023-01-13T17:27:51.224Z,100525.56
2023-01-13T17:32:52.688Z,100548.69
2023-01-13T17:37:54.386Z,100558.28
2023-01-13T17:42:57.178Z,100569.53
2023-01-13T17:47:58.659Z,100572.28
2023-01-13T17:53:00.093Z,100585.19
2023-01-13T17:58:01.587Z,100588.78
2023-01-13T18:03:03.033Z,100583.88
2023-01-13T18:08:04.764Z,100609.47
2023-01-13T18:13:06.914Z,100612.16
2023-01-13T18:18:08.329Z,100612.28
2023-01-13T18:23:35.539Z,100609.97
2023-01-13T18:28:36.915Z,100619.31
2023-01-13T18:33:38.339Z,100634.53
2023-01-13T18:38:39.752Z,100631.97
2023-01-13T18:43:41.102Z,100626.91
2023-01-13T18:48:42.462Z,100630.34
2023-01-13T18:53:43.888Z,100642.06
2023-01-13T18:58:52.252Z,100647.84
2023-01-13T19:03:59.432Z,100657.13
2023-01-13T19:09:08.320Z,100652.09
2023-01-13T19:14:09.817Z,100660.56
2023-01-13T19:19:11.229Z,100667.31
2023-01-13T19:24:12.630Z,100692.56
2023-01-13T19:29:14.440Z,100706.03
2023-01-13T19:34:16.500Z,100721.94
2023-01-13T19:39:17.905Z,100738.81
2023-01-13T19:44:42.359Z,100726.16
2023-01-13T19:49:44.161Z,100743.97
2023-01-13T19:54:46.780Z,100732.84
2023-01-13T19:59:48.348Z,100735.28
2023-01-13T20:04:49.789Z,100748.88
2023-01-13T20:09:52.513Z,100762.53
2023-01-13T20:14:54.651Z,100771.84
2023-01-13T20:19:56.306Z,100784.50
2023-01-13T20:24:57.742Z,100794.59
2023-01-13T20:29:59.252Z,100794.53
2023-01-13T20:35:00.674Z,100808.00
2023-01-13T20:40:02.182Z,100807.13
2023-01-13T20:45:03.879Z,100812.19
2023-01-13T20:50:05.603Z,100807.88
2023-01-13T20:55:08.237Z,100806.97
2023-01-13T21:00:10.625Z,100793.41
2023-01-13T21:05:12.097Z,100796.03
2023-01-13T21:10:13.647Z,100782.69
2023-01-13T21:15:17.765Z,100787.19
2023-01-13T21:20:19.424Z,100794.06
2023-01-13T21:25:20.870Z,100799.28
2023-01-13T21:30:22.670Z,100797.50
2023-01-13T21:35:24.097Z,100794.06
2023-01-13T21:40:25.567Z,100806.81
2023-01-13T21:45:46.399Z,100813.53
2023-01-13T21:50:47.848Z,100813.47
2023-01-13T21:55:52.584Z,100819.31
2023-01-13T22:00:54.192Z,100823.69
2023-01-13T22:05:56.507Z,100828.88
2023-01-13T22:10:58.600Z,100833.25
2023-01-13T22:16:04.329Z,100833.41
2023-01-13T22:21:06.109Z,100825.06
2023-01-13T22:26:08.348Z,100834.44
2023-01-13T22:31:12.782Z,100837.88
2023-01-13T22:36:15.254Z,100844.69
2023-01-13T22:41:16.660Z,100828.69
2023-01-13T22:46:18.124Z,100844.78
2023-01-13T22:51:19.560Z,100858.31
2023-01-13T22:56:23.061Z,100850.72
2023-01-13T23:01:26.034Z,100857.47
2023-01-13T23:06:30.096Z,100858.34
2023-01-13T23:11:31.994Z,100866.00
2023-01-13T23:16:36.651Z,100860.91
2023-01-13T23:21:38.292Z,100869.34
2023-01-13T23:26:39.956Z,100870.22
2023-01-13T23:31:41.493Z,100869.41
2023-01-13T23:36:44.379Z,100874.47
2023-01-13T23:41:45.752Z,100862.66
2023-01-13T23:46:47.257Z,100864.34
2023-01-13T23:51:52.220Z,100870.22
2023-01-13T23:56:53.703Z,100872.75
